sensor_id;sensor_type;location;lat;lon;timestamp;pressure;altitude;pressure_sealevel;temperature;humidity
70217;BME280;57608;0.000;0.000;2022-09-01T00:01:56;98474.47;;;24.08;37.58
70217;BME280;57608;0.000;0.000;2022-09-01T00:04:23;98476.13;;;24.09;37.33
70217;BME280;57608;0.000;0.000;2022-09-01T00:06:53;98474.94;;;24.12;37.37
70217;BME280;57608;0.000;0.000;2022-09-01T00:09:20;98472.25;;;24.12;37.16
70217;BME280;57608;0.000;0.000;2022-09-01T00:11:49;98473.06;;;24.12;37.12
70217;BME280;57608;0.000;0.000;2022-09-01T00:14:15;98471.41;;;24.11;37.24
70217;BME280;57608;0.000;0.000;2022-09-01T00:16:40;98475.41;;;24.15;36.97
70217;BME280;57608;0.000;0.000;2022-09-01T00:19:06;98474.38;;;24.16;37.22
70217;BME280;57608;0.000;0.000;2022-09-01T00:21:38;98476.88;;;24.18;36.96
70217;BME280;57608;0.000;0.000;2022-09-01T00:24:05;98476.88;;;24.18;37.09
70217;BME280;57608;0.000;0.000;2022-09-01T00:26:31;98483.06;;;24.18;37.26
70217;BME280;57608;0.000;0.000;2022-09-01T00:28:57;98479.56;;;24.18;36.88
70217;BME280;57608;0.000;0.000;2022-09-01T00:31:23;98490.25;;;24.18;37.18
70217;BME280;57608;0.000;0.000;2022-09-01T00:33:50;98487.59;;;24.18;37.02
70217;BME280;57608;0.000;0.000;2022-09-01T00:36:16;98477.03;;;24.16;37.18
70217;BME280;57608;0.000;0.000;2022-09-01T00:38:43;98480.91;;;24.14;37.13
70217;BME280;57608;0.000;0.000;2022-09-01T00:41:09;98483.16;;;24.10;37.04
70217;BME280;57608;0.000;0.000;2022-09-01T00:43:59;98476.66;;;24.04;37.26
70217;BME280;57608;0.000;0.000;2022-09-01T00:46:26;98481.56;;;24.01;37.37
70217;BME280;57608;0.000;0.000;2022-09-01T00:48:55;98480.44;;;23.95;37.21
70217;BME280;57608;0.000;0.000;2022-09-01T00:51:23;98477.50;;;23.90;37.07
70217;BME280;57608;0.000;0.000;2022-09-01T00:53:50;98478.66;;;23.87;37.21
70217;BME280;57608;0.000;0.000;2022-09-01T00:56:15;98476.34;;;23.84;37.28
70217;BME280;57608;0.000;0.000;2022-09-01T00:58:44;98487.25;;;23.83;37.28
70217;BME280;57608;0.000;0.000;2022-09-01T01:01:10;98489.25;;;23.81;37.07
70217;BME280;57608;0.000;0.000;2022-09-01T01:03:36;98488.25;;;23.82;37.05
70217;BME280;57608;0.000;0.000;2022-09-01T01:06:07;98487.41;;;23.81;37.32
70217;BME280;57608;0.000;0.000;2022-09-01T01:08:37;98491.94;;;23.81;37.05
70217;BME280;57608;0.000;0.000;2022-09-01T01:11:12;98490.25;;;23.80;37.11
70217;BME280;57608;0.000;0.000;2022-09-01T01:13:54;98489.63;;;23.78;37.27
70217;BME280;57608;0.000;0.000;2022-09-01T01:16:22;98486.28;;;23.75;37.15
70217;BME280;57608;0.000;0.000;2022-09-01T01:18:48;98480.31;;;23.73;37.25
70217;BME280;57608;0.000;0.000;2022-09-01T01:21:18;98483.81;;;23.74;37.10
70217;BME280;57608;0.000;0.000;2022-09-01T01:24:32;98482.59;;;23.76;37.35
70217;BME280;57608;0.000;0.000;2022-09-01T01:26:59;98483.25;;;23.79;37.14
70217;BME280;57608;0.000;0.000;2022-09-01T01:29:34;98475.88;;;23.81;37.36
70217;BME280;57608;0.000;0.000;2022-09-01T01:32:00;98463.97;;;23.83;37.20
70217;BME280;57608;0.000;0.000;2022-09-01T01:34:26;98474.50;;;23.85;36.85
70217;BME280;57608;0.000;0.000;2022-09-01T01:36:52;98468.13;;;23.86;36.81
70217;BME280;57608;0.000;0.000;2022-09-01T01:39:21;98468.97;;;23.86;37.03
70217;BME280;57608;0.000;0.000;2022-09-01T01:41:51;98469.47;;;23.90;36.95
70217;BME280;57608;0.000;0.000;2022-09-01T01:44:20;98462.28;;;23.90;36.89
70217;BME280;57608;0.000;0.000;2022-09-01T01:46:50;98460.44;;;23.91;37.10
70217;BME280;57608;0.000;0.000;2022-09-01T01:49:21;98460.06;;;23.94;36.82
70217;BME280;57608;0.000;0.000;2022-09-01T01:51:48;98460.06;;;23.94;37.16
70217;BME280;57608;0.000;0.000;2022-09-01T01:54:15;98453.69;;;23.95;36.89
70217;BME280;57608;0.000;0.000;2022-09-01T01:56:43;98465.25;;;23.96;36.83
70217;BME280;57608;0.000;0.000;2022-09-01T01:59:09;98471.41;;;23.96;36.80
70217;BME280;57608;0.000;0.000;2022-09-01T02:01:39;98472.41;;;23.95;36.78
70217;BME280;57608;0.000;0.000;2022-09-01T02:04:07;98468.25;;;23.92;36.63
70217;BME280;57608;0.000;0.000;2022-09-01T02:06:37;98466.78;;;23.90;36.70
70217;BME280;57608;0.000;0.000;2022-09-01T02:09:06;98470.81;;;23.86;36.94
70217;BME280;57608;0.000;0.000;2022-09-01T02:11:33;98483.91;;;23.81;36.71
70217;BME280;57608;0.000;0.000;2022-09-01T02:14:04;98484.28;;;23.78;36.49
70217;BME280;57608;0.000;0.000;2022-09-01T02:16:31;98475.78;;;23.74;36.58
70217;BME280;57608;0.000;0.000;2022-09-01T02:18:59;98470.34;;;23.67;36.80
70217;BME280;57608;0.000;0.000;2022-09-01T02:21:26;98477.69;;;23.65;36.69
70217;BME280;57608;0.000;0.000;2022-09-01T02:23:58;98471.03;;;23.61;36.66
70217;BME280;57608;0.000;0.000;2022-09-01T02:26:30;98477.41;;;23.60;36.59
70217;BME280;57608;0.000;0.000;2022-09-01T02:28:59;98478.41;;;23.59;36.75
70217;BME280;57608;0.000;0.000;2022-09-01T02:31:34;98477.59;;;23.58;36.81
70217;BME280;57608;0.000;0.000;2022-09-01T02:34:06;98474.09;;;23.58;36.61
70217;BME280;57608;0.000;0.000;2022-09-01T02:36:36;98472.41;;;23.57;36.73
70217;BME280;57608;0.000;0.000;2022-09-01T02:39:25;98477.78;;;23.57;36.51
70217;BME280;57608;0.000;0.000;2022-09-01T02:41:52;98470.09;;;23.54;36.64
70217;BME280;57608;0.000;0.000;2022-09-01T02:44:18;98478.28;;;23.52;36.45
70217;BME280;57608;0.000;0.000;2022-09-01T02:46:47;98479.16;;;23.53;36.49
70217;BME280;57608;0.000;0.000;2022-09-01T02:49:17;98471.28;;;23.51;36.52
70217;BME280;57608;0.000;0.000;2022-09-01T02:51:46;98473.63;;;23.54;36.56
70217;BME280;57608;0.000;0.000;2022-09-01T02:54:14;98468.09;;;23.56;36.79
70217;BME280;57608;0.000;0.000;2022-09-01T02:56:45;98471.41;;;23.58;36.46
70217;BME280;57608;0.000;0.000;2022-09-01T02:59:19;98479.44;;;23.58;36.57
70217;BME280;57608;0.000;0.000;2022-09-01T03:01:50;98471.03;;;23.61;36.59
70217;BME280;57608;0.000;0.000;2022-09-01T03:04:17;98470.66;;;23.64;36.55
70217;BME280;57608;0.000;0.000;2022-09-01T03:06:45;98467.00;;;23.65;36.50
70217;BME280;57608;0.000;0.000;2022-09-01T03:09:16;98472.00;;;23.68;36.47
70217;BME280;57608;0.000;0.000;2022-09-01T03:11:48;98468.28;;;23.69;36.28
70217;BME280;57608;0.000;0.000;2022-09-01T03:14:15;98466.28;;;23.71;36.29
70217;BME280;57608;0.000;0.000;2022-09-01T03:16:42;98472.44;;;23.72;36.34
70217;BME280;57608;0.000;0.000;2022-09-01T03:19:09;98474.13;;;23.73;36.39
70217;BME280;57608;0.000;0.000;2022-09-01T03:21:40;98470.44;;;23.74;36.08
70217;BME280;57608;0.000;0.000;2022-09-01T03:24:10;98458.91;;;23.73;36.07
70217;BME280;57608;0.000;0.000;2022-09-01T03:26:40;98463.41;;;23.73;36.16
70217;BME280;57608;0.000;0.000;2022-09-01T03:29:07;98462.59;;;23.72;36.16
70217;BME280;57608;0.000;0.000;2022-09-01T03:31:33;98468.94;;;23.71;36.02
70217;BME280;57608;0.000;0.000;2022-09-01T03:34:00;98468.66;;;23.66;36.15
70217;BME280;57608;0.000;0.000;2022-09-01T03:36:28;98467.38;;;23.62;36.01
70217;BME280;57608;0.000;0.000;2022-09-01T03:38:56;98478.59;;;23.57;36.00
70217;BME280;57608;0.000;0.000;2022-09-01T03:41:25;98479.16;;;23.53;36.17
70217;BME280;57608;0.000;0.000;2022-09-01T03:43:53;98479.66;;;23.48;36.20
70217;BME280;57608;0.000;0.000;2022-09-01T03:46:24;98485.56;;;23.43;36.13
70217;BME280;57608;0.000;0.000;2022-09-01T03:48:54;98490.25;;;23.41;36.27
70217;BME280;57608;0.000;0.000;2022-09-01T03:51:22;98490.63;;;23.38;36.11
70217;BME280;57608;0.000;0.000;2022-09-01T03:53:48;98477.25;;;23.38;36.21
70217;BME280;57608;0.000;0.000;2022-09-01T03:56:15;98483.59;;;23.37;36.16
70217;BME280;57608;0.000;0.000;2022-09-01T03:58:42;98483.59;;;23.37;36.01
70217;BME280;57608;0.000;0.000;2022-09-01T04:01:12;98486.09;;;23.39;36.20
70217;BME280;57608;0.000;0.000;2022-09-01T04:03:39;98478.91;;;23.39;36.12
70217;BME280;57608;0.000;0.000;2022-09-01T04:06:07;98482.59;;;23.38;35.92
70217;BME280;57608;0.000;0.000;2022-09-01T04:08:34;98476.59;;;23.36;36.07
70217;BME280;57608;0.000;0.000;2022-09-01T04:11:08;98464.25;;;23.35;35.98
70217;BME280;57608;0.000;0.000;2022-09-01T04:13:37;98474.09;;;23.35;35.88
70217;BME280;57608;0.000;0.000;2022-09-01T04:16:04;98477.59;;;23.35;35.99
70217;BME280;57608;0.000;0.000;2022-09-01T04:18:51;98478.09;;;23.39;36.05
70217;BME280;57608;0.000;0.000;2022-09-01T04:21:18;98477.72;;;23.42;36.12
70217;BME280;57608;0.000;0.000;2022-09-01T04:23:45;98474.50;;;23.47;35.69
70217;BME280;57608;0.000;0.000;2022-09-01T04:26:12;98478.66;;;23.49;35.75
70217;BME280;57608;0.000;0.000;2022-09-01T04:28:46;98475.00;;;23.50;35.87
70217;BME280;57608;0.000;0.000;2022-09-01T04:31:18;98481.25;;;23.57;36.00
70217;BME280;57608;0.000;0.000;2022-09-01T04:33:50;98485.06;;;23.63;35.96
70217;BME280;57608;0.000;0.000;2022-09-01T04:36:28;98478.97;;;23.69;36.21
70217;BME280;57608;0.000;0.000;2022-09-01T04:39:00;98487.47;;;23.73;36.00
70217;BME280;57608;0.000;0.000;2022-09-01T04:41:36;98488.59;;;23.79;35.98
70217;BME280;57608;0.000;0.000;2022-09-01T04:44:05;98480.84;;;23.84;35.70
70217;BME280;57608;0.000;0.000;2022-09-01T04:46:34;98490.34;;;23.86;35.74
70217;BME280;57608;0.000;0.000;2022-09-01T04:49:06;98489.16;;;23.89;35.64
70217;BME280;57608;0.000;0.000;2022-09-01T04:51:42;98482.66;;;23.91;35.55
70217;BME280;57608;0.000;0.000;2022-09-01T04:54:12;98486.81;;;23.94;35.78
70217;BME280;57608;0.000;0.000;2022-09-01T04:56:41;98480.63;;;23.94;35.57
70217;BME280;57608;0.000;0.000;2022-09-01T04:59:08;98479.81;;;23.93;35.47
70217;BME280;57608;0.000;0.000;2022-09-01T05:01:40;98483.50;;;23.92;35.31
70217;BME280;57608;0.000;0.000;2022-09-01T05:06:40;98489.91;;;23.83;34.54
70217;BME280;57608;0.000;0.000;2022-09-01T05:09:06;98492.31;;;23.78;34.39
70217;BME280;57608;0.000;0.000;2022-09-01T05:11:35;98493.69;;;23.73;34.67
70217;BME280;57608;0.000;0.000;2022-09-01T05:14:03;98495.03;;;23.69;34.44
70217;BME280;57608;0.000;0.000;2022-09-01T05:16:30;98495.59;;;23.65;34.59
70217;BME280;57608;0.000;0.000;2022-09-01T05:18:57;98497.78;;;23.61;34.14
70217;BME280;57608;0.000;0.000;2022-09-01T05:21:23;98502.03;;;23.55;34.03
70217;BME280;57608;0.000;0.000;2022-09-01T05:23:51;98499.88;;;23.51;33.71
70217;BME280;57608;0.000;0.000;2022-09-01T05:26:22;98494.22;;;23.46;33.38
70217;BME280;57608;0.000;0.000;2022-09-01T05:28:51;98498.28;;;23.41;33.66
70217;BME280;57608;0.000;0.000;2022-09-01T05:31:22;98497.97;;;23.36;33.49
70217;BME280;57608;0.000;0.000;2022-09-01T05:33:49;98496.00;;;23.30;33.37
70217;BME280;57608;0.000;0.000;2022-09-01T05:36:19;98500.06;;;23.26;33.64
70217;BME280;57608;0.000;0.000;2022-09-01T05:38:46;98507.59;;;23.22;33.74
70217;BME280;57608;0.000;0.000;2022-09-01T05:41:15;98501.59;;;23.20;33.77
70217;BME280;57608;0.000;0.000;2022-09-01T05:43:42;98497.09;;;23.21;33.72
70217;BME280;57608;0.000;0.000;2022-09-01T05:46:13;98505.75;;;23.23;34.16
70217;BME280;57608;0.000;0.000;2022-09-01T05:48:43;98501.72;;;23.27;34.33
70217;BME280;57608;0.000;0.000;2022-09-01T05:51:11;98497.00;;;23.29;34.50
70217;BME280;57608;0.000;0.000;2022-09-01T05:53:41;98510.69;;;23.34;34.54
70217;BME280;57608;0.000;0.000;2022-09-01T05:56:09;98509.50;;;23.37;34.29
70217;BME280;57608;0.000;0.000;2022-09-01T05:58:38;98498.66;;;23.38;34.45
70217;BME280;57608;0.000;0.000;2022-09-01T06:01:05;98498.28;;;23.41;34.33
70217;BME280;57608;0.000;0.000;2022-09-01T06:03:32;98496.28;;;23.43;34.27
70217;BME280;57608;0.000;0.000;2022-09-01T06:06:04;98499.56;;;23.46;34.36
70217;BME280;57608;0.000;0.000;2022-09-01T06:08:33;98502.25;;;23.46;34.37
70217;BME280;57608;0.000;0.000;2022-09-01T06:11:02;98500.06;;;23.49;34.35
70217;BME280;57608;0.000;0.000;2022-09-01T06:13:35;98497.19;;;23.51;34.30
70217;BME280;57608;0.000;0.000;2022-09-01T06:16:02;98497.19;;;23.51;34.19
70217;BME280;57608;0.000;0.000;2022-09-01T06:18:28;98501.53;;;23.52;34.39
70217;BME280;57608;0.000;0.000;2022-09-01T06:20:54;98504.22;;;23.52;34.37
70217;BME280;57608;0.000;0.000;2022-09-01T06:23:20;98498.19;;;23.50;34.31
70217;BME280;57608;0.000;0.000;2022-09-01T06:25:46;98501.88;;;23.49;34.35
70217;BME280;57608;0.000;0.000;2022-09-01T06:28:14;98503.25;;;23.45;34.48
70217;BME280;57608;0.000;0.000;2022-09-01T06:30:42;98499.94;;;23.42;34.58
70217;BME280;57608;0.000;0.000;2022-09-01T06:33:12;98494.13;;;23.39;34.71
70217;BME280;57608;0.000;0.000;2022-09-01T06:35:40;98507.66;;;23.37;34.54
70217;BME280;57608;0.000;0.000;2022-09-01T06:38:08;98494.81;;;23.33;34.50
70217;BME280;57608;0.000;0.000;2022-09-01T06:40:35;98490.66;;;23.30;34.72
70217;BME280;57608;0.000;0.000;2022-09-01T06:43:07;98494.34;;;23.29;34.88
70217;BME280;57608;0.000;0.000;2022-09-01T06:45:41;98498.03;;;23.28;34.66
70217;BME280;57608;0.000;0.000;2022-09-01T06:48:07;98502.22;;;23.31;34.85
70217;BME280;57608;0.000;0.000;2022-09-01T06:50:34;98505.69;;;23.31;34.85
70217;BME280;57608;0.000;0.000;2022-09-01T06:53:01;98500.34;;;23.31;34.88
70217;BME280;57608;0.000;0.000;2022-09-01T06:55:37;98508.84;;;23.35;35.12
70217;BME280;57608;0.000;0.000;2022-09-01T06:58:09;98508.66;;;23.36;34.99
70217;BME280;57608;0.000;0.000;2022-09-01T07:00:38;98502.50;;;23.36;35.02
70217;BME280;57608;0.000;0.000;2022-09-01T07:03:06;98505.31;;;23.34;35.56
70217;BME280;57608;0.000;0.000;2022-09-01T07:05:37;98509.34;;;23.38;36.16
70217;BME280;57608;0.000;0.000;2022-09-01T07:08:05;98517.66;;;23.43;36.28
70217;BME280;57608;0.000;0.000;2022-09-01T07:10:45;98517.28;;;23.47;36.13
70217;BME280;57608;0.000;0.000;2022-09-01T07:13:14;98515.25;;;23.49;35.92
70217;BME280;57608;0.000;0.000;2022-09-01T07:16:02;98508.72;;;23.51;35.72
70217;BME280;57608;0.000;0.000;2022-09-01T07:18:31;98519.88;;;23.55;35.61
70217;BME280;57608;0.000;0.000;2022-09-01T07:20:57;98515.53;;;23.54;35.17
70217;BME280;57608;0.000;0.000;2022-09-01T07:23:25;98514.91;;;23.52;34.72
70217;BME280;57608;0.000;0.000;2022-09-01T07:26:11;98521.25;;;23.51;34.69
70217;BME280;57608;0.000;0.000;2022-09-01T07:28:44;98522.25;;;23.50;34.39
70217;BME280;57608;0.000;0.000;2022-09-01T07:31:27;98514.44;;;23.48;34.12
70217;BME280;57608;0.000;0.000;2022-09-01T07:33:58;98513.13;;;23.44;34.15
70217;BME280;57608;0.000;0.000;2022-09-01T07:36:25;98513.13;;;23.44;34.06
70217;BME280;57608;0.000;0.000;2022-09-01T07:38:52;98514.97;;;23.43;33.80
70217;BME280;57608;0.000;0.000;2022-09-01T07:41:23;98522.50;;;23.40;33.69
70217;BME280;57608;0.000;0.000;2022-09-01T07:43:50;98519.34;;;23.36;33.79
70217;BME280;57608;0.000;0.000;2022-09-01T07:46:31;98512.03;;;23.30;33.46
70217;BME280;57608;0.000;0.000;2022-09-01T07:48:59;98518.94;;;23.24;33.40
70217;BME280;57608;0.000;0.000;2022-09-01T07:51:28;98518.81;;;23.18;33.48
70217;BME280;57608;0.000;0.000;2022-09-01T07:53:55;98519.50;;;23.12;33.48
70217;BME280;57608;0.000;0.000;2022-09-01T07:56:22;98519.19;;;23.06;33.82
70217;BME280;57608;0.000;0.000;2022-09-01T07:58:50;98518.06;;;23.01;33.80
70217;BME280;57608;0.000;0.000;2022-09-01T08:01:19;98516.25;;;22.93;33.63
70217;BME280;57608;0.000;0.000;2022-09-01T08:03:47;98518.63;;;22.88;33.69
70217;BME280;57608;0.000;0.000;2022-09-01T08:06:16;98521.00;;;22.83;33.59
70217;BME280;57608;0.000;0.000;2022-09-01T08:08:44;98526.03;;;22.77;33.59
70217;BME280;57608;0.000;0.000;2022-09-01T08:11:23;98513.84;;;22.75;33.93
70217;BME280;57608;0.000;0.000;2022-09-01T08:13:51;98513.00;;;22.74;34.07
70217;BME280;57608;0.000;0.000;2022-09-01T08:16:19;98513.84;;;22.75;34.09
70217;BME280;57608;0.000;0.000;2022-09-01T08:18:46;98519.69;;;22.79;34.46
70217;BME280;57608;0.000;0.000;2022-09-01T08:21:13;98514.78;;;22.82;34.70
70217;BME280;57608;0.000;0.000;2022-09-01T08:23:52;98519.63;;;22.87;34.96
70217;BME280;57608;0.000;0.000;2022-09-01T08:26:22;98508.25;;;22.93;35.52
70217;BME280;57608;0.000;0.000;2022-09-01T08:28:49;98520.72;;;23.01;36.53
70217;BME280;57608;0.000;0.000;2022-09-01T08:31:18;98519.84;;;23.08;36.52
70217;BME280;57608;0.000;0.000;2022-09-01T08:33:45;98529.69;;;23.16;37.27
70217;BME280;57608;0.000;0.000;2022-09-01T08:36:14;98529.16;;;23.21;37.39
70217;BME280;57608;0.000;0.000;2022-09-01T08:38:41;98532.94;;;23.26;37.41
70217;BME280;57608;0.000;0.000;2022-09-01T08:41:44;98530.56;;;23.32;37.49
70217;BME280;57608;0.000;0.000;2022-09-01T08:47:08;98536.88;;;23.39;37.01
70217;BME280;57608;0.000;0.000;2022-09-01T08:49:37;98534.88;;;23.41;37.65
70217;BME280;57608;0.000;0.000;2022-09-01T08:52:23;98529.97;;;23.45;37.36
70217;BME280;57608;0.000;0.000;2022-09-01T08:55:13;98543.00;;;23.48;37.04
70217;BME280;57608;0.000;0.000;2022-09-01T08:57:42;98537.00;;;23.46;36.85
70217;BME280;57608;0.000;0.000;2022-09-01T09:00:15;98539.66;;;23.46;36.71
70217;BME280;57608;0.000;0.000;2022-09-01T09:08:58;98546.19;;;23.43;36.04
70217;BME280;57608;0.000;0.000;2022-09-01T09:11:45;98548.06;;;23.42;35.98
70217;BME280;57608;0.000;0.000;2022-09-01T09:17:06;98550.06;;;23.40;36.07
70217;BME280;57608;0.000;0.000;2022-09-01T09:19:40;98555.59;;;23.39;35.91
70217;BME280;57608;0.000;0.000;2022-09-01T09:22:12;98546.75;;;23.38;35.95
70217;BME280;57608;0.000;0.000;2022-09-01T09:29:49;98556.09;;;23.34;36.09
70217;BME280;57608;0.000;0.000;2022-09-01T09:32:19;98563.81;;;23.29;36.03
70217;BME280;57608;0.000;0.000;2022-09-01T09:34:46;98571.53;;;23.24;35.49
70217;BME280;57608;0.000;0.000;2022-09-01T09:37:30;98572.44;;;23.16;35.27
70217;BME280;57608;0.000;0.000;2022-09-01T09:40:21;98569.59;;;23.09;35.22
70217;BME280;57608;0.000;0.000;2022-09-01T09:47:55;98573.00;;;22.95;34.87
70217;BME280;57608;0.000;0.000;2022-09-01T09:50:28;98568.00;;;22.92;34.96
70217;BME280;57608;0.000;0.000;2022-09-01T09:53:29;98571.69;;;22.91;35.07
70217;BME280;57608;0.000;0.000;2022-09-01T09:58:41;98576.88;;;22.84;34.73
70217;BME280;57608;0.000;0.000;2022-09-01T10:03:52;98576.75;;;22.77;34.91
70217;BME280;57608;0.000;0.000;2022-09-01T10:06:32;98590.75;;;22.80;34.79
70217;BME280;57608;0.000;0.000;2022-09-01T10:09:06;98588.94;;;22.80;34.57
70217;BME280;57608;0.000;0.000;2022-09-01T10:11:41;98594.25;;;22.80;34.27
70217;BME280;57608;0.000;0.000;2022-09-01T10:14:19;98588.06;;;22.80;34.12
70217;BME280;57608;0.000;0.000;2022-09-01T10:16:49;98589.09;;;22.79;34.22
70217;BME280;57608;0.000;0.000;2022-09-01T10:19:18;98596.09;;;22.80;34.47
70217;BME280;57608;0.000;0.000;2022-09-01T10:21:45;98597.44;;;22.84;34.56
70217;BME280;57608;0.000;0.000;2022-09-01T10:26:40;98602.41;;;22.87;34.76
70217;BME280;57608;0.000;0.000;2022-09-01T10:29:21;98600.38;;;22.89;34.97
70217;BME280;57608;0.000;0.000;2022-09-01T10:31:50;98600.25;;;22.90;34.88
70217;BME280;57608;0.000;0.000;2022-09-01T10:34:19;98592.69;;;22.94;34.73
70217;BME280;57608;0.000;0.000;2022-09-01T10:36:47;98598.69;;;22.96;34.85
70217;BME280;57608;0.000;0.000;2022-09-01T10:39:16;98598.69;;;22.96;34.84
70217;BME280;57608;0.000;0.000;2022-09-01T10:41:43;98600.38;;;22.97;34.73
70217;BME280;57608;0.000;0.000;2022-09-01T10:44:17;98599.19;;;23.00;34.91
70217;BME280;57608;0.000;0.000;2022-09-01T10:46:45;98593.66;;;23.01;34.90
70217;BME280;57608;0.000;0.000;2022-09-01T10:51:59;98597.84;;;23.04;34.76
70217;BME280;57608;0.000;0.000;2022-09-01T10:59:38;98599.31;;;23.06;35.12
70217;BME280;57608;0.000;0.000;2022-09-01T11:02:14;98604.50;;;23.08;35.05
70217;BME280;57608;0.000;0.000;2022-09-01T11:07:33;98602.00;;;23.06;35.12
70217;BME280;57608;0.000;0.000;2022-09-01T11:10:27;98607.69;;;23.03;35.19
70217;BME280;57608;0.000;0.000;2022-09-01T11:15:45;98605.91;;;22.96;35.08
70217;BME280;57608;0.000;0.000;2022-09-01T11:18:31;98597.56;;;22.90;34.87
70217;BME280;57608;0.000;0.000;2022-09-01T11:21:27;98606.09;;;22.86;35.20
70217;BME280;57608;0.000;0.000;2022-09-01T11:26:58;98601.09;;;22.83;35.12
70217;BME280;57608;0.000;0.000;2022-09-01T11:30:17;98601.75;;;22.85;35.52
70217;BME280;57608;0.000;0.000;2022-09-01T11:32:37;98595.41;;;22.86;35.31
70217;BME280;57608;0.000;0.000;2022-09-01T11:35:23;98598.94;;;22.86;35.38
70217;BME280;57608;0.000;0.000;2022-09-01T11:37:55;98597.91;;;22.87;35.25
70217;BME280;57608;0.000;0.000;2022-09-01T11:40:26;98592.09;;;22.84;35.33
70217;BME280;57608;0.000;0.000;2022-09-01T11:42:55;98600.91;;;22.84;35.13
70217;BME280;57608;0.000;0.000;2022-09-01T11:45:27;98588.75;;;22.82;35.30
70217;BME280;57608;0.000;0.000;2022-09-01T11:48:00;98596.41;;;22.85;35.52
70217;BME280;57608;0.000;0.000;2022-09-01T11:50:29;98595.41;;;22.86;35.43
70217;BME280;57608;0.000;0.000;2022-09-01T11:53:13;98590.56;;;22.89;35.54
70217;BME280;57608;0.000;0.000;2022-09-01T11:55:42;98582.19;;;22.92;35.72
70217;BME280;57608;0.000;0.000;2022-09-01T12:03:41;98581.81;;;23.04;35.74
70217;BME280;57608;0.000;0.000;2022-09-01T12:06:22;98578.97;;;23.05;35.80
70217;BME280;57608;0.000;0.000;2022-09-01T12:08:57;98575.09;;;23.08;35.74
70217;BME280;57608;0.000;0.000;2022-09-01T12:11:32;98577.44;;;23.11;35.72
70217;BME280;57608;0.000;0.000;2022-09-01T12:14:08;98579.94;;;23.13;35.75
70217;BME280;57608;0.000;0.000;2022-09-01T12:16:37;98577.94;;;23.15;35.63
70217;BME280;57608;0.000;0.000;2022-09-01T12:19:05;98576.75;;;23.17;35.78
70217;BME280;57608;0.000;0.000;2022-09-01T12:21:38;98575.56;;;23.20;35.77
70217;BME280;57608;0.000;0.000;2022-09-01T12:24:22;98576.06;;;23.23;35.80
70217;BME280;57608;0.000;0.000;2022-09-01T12:26:52;98573.19;;;23.25;35.82
70217;BME280;57608;0.000;0.000;2022-09-01T12:29:19;98565.84;;;23.27;35.68
70217;BME280;57608;0.000;0.000;2022-09-01T12:31:48;98567.53;;;23.28;35.51
70217;BME280;57608;0.000;0.000;2022-09-01T12:34:42;98572.88;;;23.28;35.67
70217;BME280;57608;0.000;0.000;2022-09-01T12:39:46;98560.69;;;23.25;35.48
70217;BME280;57608;0.000;0.000;2022-09-01T12:42:30;98562.88;;;23.22;35.55
70217;BME280;57608;0.000;0.000;2022-09-01T12:45:00;98558.72;;;23.19;35.63
70217;BME280;57608;0.000;0.000;2022-09-01T12:50:01;98569.25;;;23.13;35.61
70217;BME280;57608;0.000;0.000;2022-09-01T12:52:29;98564.25;;;23.09;35.43
70217;BME280;57608;0.000;0.000;2022-09-01T12:57:31;98563.09;;;23.04;35.49
70217;BME280;57608;0.000;0.000;2022-09-01T13:03:31;98566.97;;;23.01;35.63
70217;BME280;57608;0.000;0.000;2022-09-01T13:05:37;98548.09;;;23.03;35.56
70217;BME280;57608;0.000;0.000;2022-09-01T13:08:23;98550.56;;;23.04;35.55
70217;BME280;57608;0.000;0.000;2022-09-01T13:10:57;98542.91;;;23.01;35.37
70217;BME280;57608;0.000;0.000;2022-09-01T13:13:24;98549.25;;;23.00;35.31
70217;BME280;57608;0.000;0.000;2022-09-01T13:15:54;98546.94;;;22.97;35.12
70217;BME280;57608;0.000;0.000;2022-09-01T13:18:41;98548.94;;;22.95;35.20
70217;BME280;57608;0.000;0.000;2022-09-01T13:21:08;98548.94;;;22.95;35.31
70217;BME280;57608;0.000;0.000;2022-09-01T13:23:34;98543.44;;;22.97;35.12
70217;BME280;57608;0.000;0.000;2022-09-01T13:26:00;98549.63;;;22.97;34.97
70217;BME280;57608;0.000;0.000;2022-09-01T13:28:27;98551.13;;;23.00;34.94
70217;BME280;57608;0.000;0.000;2022-09-01T13:30:58;98550.94;;;23.01;35.16
70217;BME280;57608;0.000;0.000;2022-09-01T13:33:26;98545.22;;;23.04;34.91
70217;BME280;57608;0.000;0.000;2022-09-01T13:35:52;98549.56;;;23.05;34.98
70217;BME280;57608;0.000;0.000;2022-09-01T13:38:20;98550.06;;;23.09;34.94
70217;BME280;57608;0.000;0.000;2022-09-01T13:40:47;98549.88;;;23.10;35.20
70217;BME280;57608;0.000;0.000;2022-09-01T13:43:16;98553.22;;;23.13;35.31
70217;BME280;57608;0.000;0.000;2022-09-01T13:45:44;98547.53;;;23.16;35.24
70217;BME280;57608;0.000;0.000;2022-09-01T13:48:15;98541.00;;;23.18;35.43
70217;BME280;57608;0.000;0.000;2022-09-01T13:50:42;98545.34;;;23.19;35.38
70217;BME280;57608;0.000;0.000;2022-09-01T13:53:09;98546.84;;;23.22;35.45
70217;BME280;57608;0.000;0.000;2022-09-01T13:55:38;98534.50;;;23.21;35.51
70217;BME280;57608;0.000;0.000;2022-09-01T13:58:04;98544.81;;;23.24;35.45
70217;BME280;57608;0.000;0.000;2022-09-01T14:00:33;98546.66;;;23.23;35.48
70217;BME280;57608;0.000;0.000;2022-09-01T14:03:05;98540.31;;;23.24;35.58
70217;BME280;57608;0.000;0.000;2022-09-01T14:05:34;98544.00;;;23.23;35.22
70217;BME280;57608;0.000;0.000;2022-09-01T14:08:03;98553.19;;;23.21;35.65
70217;BME280;57608;0.000;0.000;2022-09-01T14:10:29;98548.22;;;23.18;35.72
70217;BME280;57608;0.000;0.000;2022-09-01T14:12:58;98556.56;;;23.15;35.74
70217;BME280;57608;0.000;0.000;2022-09-01T14:15:26;98543.53;;;23.12;35.78
70217;BME280;57608;0.000;0.000;2022-09-01T14:17:54;98553.56;;;23.09;35.99
70217;BME280;57608;0.000;0.000;2022-09-01T14:20:27;98549.38;;;23.07;35.88
70217;BME280;57608;0.000;0.000;2022-09-01T14:22:55;98543.41;;;23.05;36.25
70217;BME280;57608;0.000;0.000;2022-09-01T14:25:22;98546.91;;;23.05;36.18
70217;BME280;57608;0.000;0.000;2022-09-01T14:27:48;98548.56;;;23.06;36.31
70217;BME280;57608;0.000;0.000;2022-09-01T14:30:22;98548.38;;;23.08;36.30
70217;BME280;57608;0.000;0.000;2022-09-01T14:32:48;98557.25;;;23.08;36.20
70217;BME280;57608;0.000;0.000;2022-09-01T14:35:16;98566.09;;;23.09;36.40